createdAt,value
2023-01-24T00:01:36.268Z,94.94
2023-01-24T00:04:08.297Z,94.76
2023-01-24T00:06:40.148Z,94.83
2023-01-24T00:09:12.196Z,94.93
2023-01-24T00:11:44.452Z,94.78
2023-01-24T00:14:18.525Z,94.84
2023-01-24T00:16:48.799Z,94.84
2023-01-24T00:19:20.930Z,95.04
2023-01-24T00:21:53.425Z,94.84
2023-01-24T00:24:25.307Z,94.79
2023-01-24T00:26:57.362Z,94.74
2023-01-24T00:29:29.181Z,94.82
2023-01-24T00:32:01.572Z,94.84
2023-01-24T00:34:33.453Z,94.90
2023-01-24T00:37:05.694Z,94.95
2023-01-24T00:39:37.561Z,95.05
2023-01-24T00:42:10.111Z,94.82
2023-01-24T00:44:41.944Z,94.73
2023-01-24T00:47:13.963Z,94.89
2023-01-24T00:49:45.794Z,94.78
2023-01-24T00:52:18.602Z,94.71
2023-01-24T00:54:51.842Z,94.72
2023-01-24T00:57:25.460Z,94.79
2023-01-24T00:59:57.221Z,94.80
2023-01-24T01:02:29.358Z,94.88
2023-01-24T01:05:01.364Z,94.83
2023-01-24T01:07:33.183Z,94.75
2023-01-24T01:10:05.256Z,94.81
2023-01-24T01:12:37.058Z,94.71
2023-01-24T01:15:10.733Z,94.74
2023-01-24T01:17:42.567Z,94.82
2023-01-24T01:20:15.803Z,94.63
2023-01-24T01:22:47.686Z,94.89
2023-01-24T01:25:20.036Z,95.00
2023-01-24T01:27:52.004Z,95.06
2023-01-24T01:30:25.093Z,94.92
2023-01-24T01:32:56.913Z,94.96
2023-01-24T01:35:28.833Z,95.13
2023-01-24T01:38:00.729Z,95.12
2023-01-24T01:40:32.492Z,95.17
2023-01-24T01:43:05.161Z,95.18
2023-01-24T01:45:43.486Z,95.34
2023-01-24T01:48:35.629Z,95.33
2023-01-24T01:51:20.320Z,95.53
2023-01-24T01:53:57.202Z,95.29
2023-01-24T01:56:32.733Z,95.35
2023-01-24T01:59:10.165Z,95.33
2023-01-24T02:01:42.035Z,95.31
2023-01-24T02:04:16.500Z,95.43
2023-01-24T02:06:54.358Z,95.36
2023-01-24T02:09:28.910Z,95.47
2023-01-24T02:12:04.334Z,95.35
2023-01-24T02:14:53.588Z,95.52
2023-01-24T02:17:25.730Z,95.46
2023-01-24T02:20:08.056Z,95.51
2023-01-24T02:22:45.429Z,95.43
2023-01-24T02:25:22.522Z,95.23
2023-01-24T02:27:55.403Z,95.47
2023-01-24T02:30:27.743Z,95.34
2023-01-24T02:32:59.610Z,95.44
2023-01-24T02:35:34.770Z,95.36
2023-01-24T02:38:08.351Z,95.65
2023-01-24T02:40:40.251Z,95.71
2023-01-24T02:43:13.728Z,95.76
2023-01-24T02:45:46.136Z,95.70
2023-01-24T02:48:18.395Z,95.72
2023-01-24T02:51:07.559Z,95.73
2023-01-24T02:53:42.958Z,95.71
2023-01-24T02:56:33.036Z,95.65
2023-01-24T02:59:04.894Z,95.59
2023-01-24T03:01:39.186Z,95.69
2023-01-24T03:04:11.782Z,95.59
2023-01-24T03:06:43.701Z,95.54
2023-01-24T03:09:21.279Z,95.53
2023-01-24T03:11:53.392Z,95.75
2023-01-24T03:14:42.557Z,95.70
2023-01-24T03:17:31.996Z,95.70
2023-01-24T03:20:21.745Z,95.63
2023-01-24T03:23:13.849Z,95.74
2023-01-24T03:26:03.064Z,95.89
2023-01-24T03:28:52.661Z,96.01
2023-01-24T03:31:42.229Z,95.80
2023-01-24T03:34:33.168Z,95.72
2023-01-24T03:37:05.090Z,95.86
2023-01-24T03:39:54.664Z,95.88
2023-01-24T03:42:26.442Z,96.01
2023-01-24T03:44:58.284Z,95.87
2023-01-24T03:47:30.066Z,95.94
2023-01-24T03:50:19.398Z,95.71
2023-01-24T03:52:51.309Z,95.86
2023-01-24T03:55:23.947Z,95.96
2023-01-24T03:57:56.145Z,96.02
2023-01-24T04:00:27.919Z,95.90
2023-01-24T04:02:59.768Z,95.97
2023-01-24T04:05:32.492Z,95.93
2023-01-24T04:08:05.663Z,95.91
2023-01-24T04:10:37.728Z,95.78
2023-01-24T04:13:09.736Z,96.08
2023-01-24T04:15:42.193Z,96.01
2023-01-24T04:18:14.038Z,95.85
2023-01-24T04:20:46.034Z,96.22
2023-01-24T04:23:18.111Z,96.26
2023-01-24T04:25:56.736Z,96.20
2023-01-24T04:28:30.419Z,96.05
2023-01-24T04:31:03.784Z,96.04
2023-01-24T04:33:35.849Z,96.02
2023-01-24T04:36:10.553Z,96.00
2023-01-24T04:38:42.468Z,96.08
2023-01-24T04:41:15.241Z,95.96
2023-01-24T04:43:47.224Z,96.10
2023-01-24T04:46:19.124Z,96.10
2023-01-24T04:48:51.022Z,96.07
2023-01-24T04:51:22.805Z,96.10
2023-01-24T04:53:54.651Z,96.16
2023-01-24T04:56:26.500Z,96.23
2023-01-24T04:58:58.334Z,96.29
2023-01-24T05:01:30.175Z,95.93
2023-01-24T05:04:02.055Z,96.11
2023-01-24T05:06:35.364Z,96.10
2023-01-24T05:09:07.347Z,96.43
2023-01-24T05:11:39.457Z,96.52
2023-01-24T05:14:13.204Z,96.49
2023-01-24T05:16:45.493Z,96.69
2023-01-24T05:19:17.408Z,96.69
2023-01-24T05:21:49.203Z,96.78
2023-01-24T05:24:21.237Z,96.82
2023-01-24T05:26:53.125Z,96.72
2023-01-24T05:29:24.908Z,96.84
2023-01-24T05:31:56.876Z,96.85
2023-01-24T05:34:28.781Z,96.67
2023-01-24T05:37:00.888Z,96.60
2023-01-24T05:39:32.918Z,96.64
2023-01-24T05:42:04.878Z,96.61
2023-01-24T05:44:36.702Z,96.68
2023-01-24T05:47:10.649Z,96.64
2023-01-24T05:49:42.672Z,96.57
2023-01-24T05:52:16.292Z,96.77
2023-01-24T05:54:48.195Z,96.63
2023-01-24T05:57:21.485Z,96.64
2023-01-24T05:59:53.715Z,96.60
2023-01-24T06:02:29.257Z,96.65
2023-01-24T06:05:01.165Z,96.72
2023-01-24T06:07:33.284Z,96.67
2023-01-24T06:10:05.898Z,96.51
2023-01-24T06:12:37.820Z,96.50
2023-01-24T06:15:12.648Z,96.54
2023-01-24T06:17:44.852Z,96.56
2023-01-24T06:20:19.085Z,96.62
2023-01-24T06:22:55.730Z,96.66
2023-01-24T06:25:28.897Z,96.40
2023-01-24T06:28:01.920Z,96.46
2023-01-24T06:30:34.342Z,96.36
2023-01-24T06:33:21.963Z,96.36
2023-01-24T06:36:09.843Z,96.37
2023-01-24T06:38:45.578Z,96.42
2023-01-24T06:41:20.145Z,96.46
2023-01-24T06:43:55.679Z,96.38
2023-01-24T06:46:28.088Z,96.43
2023-01-24T06:49:00.348Z,96.44
2023-01-24T06:51:32.247Z,96.61
2023-01-24T06:54:04.297Z,96.53
2023-01-24T06:56:36.292Z,96.35
2023-01-24T06:59:08.348Z,96.46
2023-01-24T07:01:40.472Z,96.52
2023-01-24T07:04:12.295Z,96.50
2023-01-24T07:06:44.179Z,96.43
2023-01-24T07:09:17.052Z,96.54
2023-01-24T07:11:53.515Z,96.60
2023-01-24T07:14:25.517Z,96.51
2023-01-24T07:16:58.134Z,96.60
2023-01-24T07:19:31.224Z,96.43
2023-01-24T07:22:04.542Z,96.47
2023-01-24T07:24:36.851Z,96.21
2023-01-24T07:27:10.139Z,96.40
2023-01-24T07:29:42.213Z,96.43
2023-01-24T07:32:14.821Z,96.33
2023-01-24T07:34:47.020Z,96.33
2023-01-24T07:37:23.801Z,96.43
2023-01-24T07:39:55.633Z,96.40
2023-01-24T07:42:27.710Z,96.37
2023-01-24T07:45:00.463Z,96.50
2023-01-24T07:47:32.436Z,96.35
2023-01-24T07:50:04.480Z,96.34
2023-01-24T07:52:36.298Z,96.61
2023-01-24T07:55:10.008Z,96.38
2023-01-24T07:57:42.080Z,96.44
2023-01-24T08:00:16.125Z,96.41
2023-01-24T08:02:48.459Z,96.17
2023-01-24T08:05:20.485Z,96.30
2023-01-24T08:07:52.669Z,96.41
2023-01-24T08:10:25.001Z,96.50
2023-01-24T08:12:57.457Z,96.51
2023-01-24T08:15:30.698Z,96.58
2023-01-24T08:18:07.098Z,96.42
2023-01-24T08:20:39.339Z,96.24
2023-01-24T08:23:11.351Z,96.25
2023-01-24T08:25:43.263Z,96.19
2023-01-24T08:28:15.245Z,96.19
2023-01-24T08:30:47.101Z,96.26
2023-01-24T08:33:20.309Z,96.19
2023-01-24T08:35:52.138Z,96.01
2023-01-24T08:38:24.008Z,95.76
2023-01-24T08:40:55.905Z,95.82
2023-01-24T08:43:27.966Z,95.85
2023-01-24T08:45:59.924Z,96.11
2023-01-24T08:48:32.986Z,96.12
2023-01-24T08:51:08.936Z,95.93
2023-01-24T08:53:40.830Z,95.99
2023-01-24T08:56:13.171Z,96.11
2023-01-24T08:58:45.066Z,95.99
2023-01-24T09:01:18.962Z,95.66
2023-01-24T09:03:51.093Z,95.73
2023-01-24T09:06:23.171Z,95.83
2023-01-24T09:08:57.509Z,96.00
2023-01-24T09:11:29.444Z,95.88
2023-01-24T09:14:01.258Z,95.90
2023-01-24T09:16:33.254Z,95.78
2023-01-24T09:19:05.355Z,95.82
2023-01-24T09:21:37.647Z,95.47
2023-01-24T09:24:10.563Z,95.33
2023-01-24T09:26:42.932Z,95.56
2023-01-24T09:29:15.103Z,95.66
2023-01-24T09:31:47.390Z,95.58
2023-01-24T09:34:19.696Z,95.63
2023-01-24T09:36:52.373Z,94.99
2023-01-24T09:39:24.127Z,94.97
2023-01-24T09:42:11.532Z,94.66
2023-01-24T09:44:52.927Z,94.48
2023-01-24T09:47:39.104Z,94.62
2023-01-24T09:50:18.122Z,94.56
2023-01-24T09:52:53.478Z,94.88
2023-01-24T09:55:27.633Z,94.48
2023-01-24T09:58:01.466Z,94.16
2023-01-24T10:00:35.892Z,94.26
2023-01-24T10:03:14.277Z,94.50
2023-01-24T10:05:50.486Z,94.79
2023-01-24T10:08:30.216Z,94.75
2023-01-24T10:11:17.594Z,94.92
2023-01-24T10:14:28.175Z,94.85
2023-01-24T10:17:27.112Z,94.82
2023-01-24T10:20:14.182Z,94.16
2023-01-24T10:23:01.120Z,94.27
2023-01-24T10:25:38.633Z,94.36
2023-01-24T10:28:18.197Z,94.48
2023-01-24T10:30:54.807Z,94.77
2023-01-24T10:33:32.194Z,94.83
2023-01-24T10:36:10.604Z,94.30
2023-01-24T10:38:43.589Z,94.15
2023-01-24T10:41:21.555Z,93.96
2023-01-24T10:44:03.942Z,93.88
2023-01-24T10:47:27.231Z,93.87
2023-01-24T10:50:02.022Z,93.77
2023-01-24T10:52:34.748Z,93.79
2023-01-24T10:55:24.471Z,94.13
2023-01-24T10:57:57.128Z,94.26
2023-01-24T11:00:34.905Z,94.35
2023-01-24T11:03:19.337Z,94.16
2023-01-24T11:05:50.567Z,94.29
2023-01-24T11:08:25.319Z,94.05
2023-01-24T11:10:59.794Z,93.87
2023-01-24T11:13:39.702Z,93.58
2023-01-24T11:16:33.214Z,93.45
2023-01-24T11:19:07.677Z,93.71
2023-01-24T11:21:53.955Z,94.01
2023-01-24T11:24:27.153Z,94.21
2023-01-24T11:27:04.141Z,94.07
2023-01-24T11:29:37.099Z,94.09
2023-01-24T11:32:27.525Z,93.83
2023-01-24T11:35:04.515Z,93.49
2023-01-24T11:37:53.812Z,93.60
2023-01-24T11:40:35.496Z,93.88
2023-01-24T11:43:17.271Z,94.07
2023-01-24T11:46:01.559Z,94.02
2023-01-24T11:48:40.748Z,93.86
2023-01-24T11:51:18.322Z,93.76
2023-01-24T11:53:59.679Z,93.69
2023-01-24T11:56:36.854Z,93.81
2023-01-24T11:59:23.472Z,94.16
2023-01-24T12:02:00.192Z,93.87
2023-01-24T12:05:00.608Z,93.90
2023-01-24T12:07:45.269Z,93.50
2023-01-24T12:10:25.053Z,92.77
2023-01-24T12:13:05.785Z,92.95
2023-01-24T12:15:52.522Z,93.34
2023-01-24T12:18:48.972Z,93.55
2023-01-24T12:21:21.181Z,93.38
2023-01-24T12:23:57.065Z,93.15
2023-01-24T12:26:31.714Z,93.46
2023-01-24T12:29:10.496Z,93.30
2023-01-24T12:31:52.277Z,93.20
2023-01-24T12:34:45.106Z,93.30
2023-01-24T12:37:26.395Z,93.14
2023-01-24T12:40:03.446Z,93.12
2023-01-24T12:42:49.745Z,93.14
2023-01-24T12:45:25.487Z,92.33
2023-01-24T12:48:00.451Z,92.09
2023-01-24T12:50:41.151Z,92.60
2023-01-24T12:53:17.371Z,92.71
2023-01-24T12:55:57.324Z,92.85
2023-01-24T12:58:31.882Z,92.94
2023-01-24T13:01:21.330Z,93.02
2023-01-24T13:03:59.200Z,92.94
2023-01-24T13:06:38.525Z,93.00
2023-01-24T13:09:20.702Z,93.08
2023-01-24T13:11:54.618Z,92.97
2023-01-24T13:14:28.985Z,92.87
2023-01-24T13:17:17.738Z,92.81
2023-01-24T13:20:02.886Z,92.85
2023-01-24T13:22:53.182Z,92.82
2023-01-24T13:25:46.802Z,92.82
2023-01-24T13:28:30.047Z,92.60
2023-01-24T13:31:10.903Z,92.42
2023-01-24T13:33:48.124Z,92.65
2023-01-24T13:36:22.003Z,92.64
2023-01-24T13:38:54.186Z,92.58
2023-01-24T13:41:39.276Z,92.39
2023-01-24T13:44:32.233Z,92.73
2023-01-24T13:47:22.205Z,92.82
2023-01-24T13:50:18.923Z,92.93
2023-01-24T13:52:55.310Z,92.78
2023-01-24T13:56:05.851Z,92.78
2023-01-24T13:58:38.272Z,92.69
2023-01-24T14:01:22.380Z,92.61
2023-01-24T14:04:07.456Z,92.56
2023-01-24T14:06:52.114Z,92.49
2023-01-24T14:09:29.830Z,92.62
2023-01-24T14:12:05.989Z,92.26
2023-01-24T14:15:02.362Z,92.21
2023-01-24T14:20:50.791Z,91.81
2023-01-24T14:23:33.911Z,91.98
2023-01-24T14:26:08.350Z,92.16
2023-01-24T14:28:46.076Z,91.99
2023-01-24T14:31:24.189Z,91.84
2023-01-24T14:33:59.771Z,91.74
2023-01-24T14:36:40.427Z,91.94
2023-01-24T14:39:25.042Z,92.05
2023-01-24T14:41:59.960Z,92.08
2023-01-24T14:44:33.734Z,92.14
2023-01-24T14:47:07.150Z,92.38
2023-01-24T14:49:47.911Z,92.28
2023-01-24T14:52:23.060Z,92.20
2023-01-24T14:54:58.406Z,92.19
2023-01-24T14:57:33.981Z,92.14
2023-01-24T15:00:16.550Z,91.98
2023-01-24T15:03:02.158Z,91.95
2023-01-24T15:05:38.394Z,92.27
2023-01-24T15:08:19.065Z,92.41
2023-01-24T15:10:57.044Z,92.56
2023-01-24T15:13:35.437Z,92.59
2023-01-24T15:16:11.369Z,92.68
2023-01-24T15:18:46.002Z,92.64
2023-01-24T15:21:26.559Z,92.57
2023-01-24T15:24:00.509Z,92.47
2023-01-24T15:26:44.542Z,92.40
2023-01-24T15:29:44.381Z,92.60
2023-01-24T15:32:28.897Z,92.50
2023-01-24T15:35:37.535Z,92.43
2023-01-24T15:38:21.917Z,92.48
2023-01-24T15:40:56.452Z,92.30
2023-01-24T15:43:50.492Z,92.27
2023-01-24T15:46:47.484Z,92.36
2023-01-24T15:49:36.562Z,92.44
2023-01-24T15:52:21.183Z,92.60
2023-01-24T15:55:00.030Z,92.58
2023-01-24T15:57:34.389Z,92.61
2023-01-24T16:00:23.442Z,92.62
2023-01-24T16:02:56.518Z,92.55
2023-01-24T16:05:30.284Z,92.53
2023-01-24T16:08:02.125Z,92.52
2023-01-24T16:10:33.985Z,92.47
2023-01-24T16:13:06.135Z,92.56
2023-01-24T16:15:40.998Z,92.54
2023-01-24T16:18:18.681Z,92.73
2023-01-24T16:20:51.768Z,92.74
2023-01-24T16:23:26.832Z,92.77
2023-01-24T16:26:02.636Z,92.87
2023-01-24T16:28:34.472Z,92.98
2023-01-24T16:31:06.612Z,92.89
2023-01-24T16:33:39.401Z,93.06
2023-01-24T16:36:15.502Z,93.04
2023-01-24T16:38:50.963Z,93.05
2023-01-24T16:41:22.741Z,93.23
2023-01-24T16:43:54.993Z,93.28
2023-01-24T16:46:27.747Z,93.29
2023-01-24T16:48:59.534Z,93.30
2023-01-24T16:51:31.578Z,93.35
2023-01-24T16:54:03.400Z,93.48
2023-01-24T16:56:36.077Z,93.45
2023-01-24T16:59:11.044Z,93.35
2023-01-24T17:01:43.985Z,93.51
2023-01-24T17:04:18.686Z,93.61
2023-01-24T17:06:50.640Z,93.67
2023-01-24T17:09:22.501Z,93.53
2023-01-24T17:12:08.598Z,93.66
2023-01-24T17:14:45.407Z,93.95
2023-01-24T17:17:17.963Z,94.16
2023-01-24T17:19:49.856Z,94.07
2023-01-24T17:22:22.142Z,94.11
2023-01-24T17:24:53.977Z,94.15
2023-01-24T17:27:25.808Z,94.15
2023-01-24T17:29:57.805Z,94.19
2023-01-24T17:32:29.712Z,94.20
2023-01-24T17:35:01.542Z,94.11
2023-01-24T17:37:34.899Z,93.99
2023-01-24T17:40:08.294Z,94.00
2023-01-24T17:42:40.531Z,93.90
2023-01-24T17:45:14.316Z,93.88
2023-01-24T17:47:46.788Z,94.00
2023-01-24T17:50:19.216Z,94.11
2023-01-24T17:52:52.081Z,94.23
2023-01-24T17:55:24.093Z,94.03
2023-01-24T17:57:59.085Z,94.32
2023-01-24T18:00:35.116Z,94.36
2023-01-24T18:03:10.888Z,94.70
2023-01-24T18:05:43.450Z,94.71
2023-01-24T18:08:15.463Z,94.54
2023-01-24T18:10:47.312Z,94.71
2023-01-24T18:13:19.328Z,94.78
2023-01-24T18:15:53.234Z,94.87
2023-01-24T18:18:25.383Z,94.82
2023-01-24T18:20:57.148Z,94.93
2023-01-24T18:23:29.430Z,95.07
2023-01-24T18:26:04.947Z,95.29
2023-01-24T18:28:38.444Z,95.31
2023-01-24T18:31:12.352Z,95.49
2023-01-24T18:33:44.991Z,95.52
2023-01-24T18:36:19.157Z,95.41
2023-01-24T18:38:51.391Z,95.55
2023-01-24T18:41:27.989Z,95.81
2023-01-24T18:44:02.348Z,95.72
2023-01-24T18:46:37.331Z,95.67
2023-01-24T18:49:12.455Z,95.52
2023-01-24T18:51:47.885Z,95.72
2023-01-24T18:54:19.826Z,95.54
2023-01-24T18:56:52.724Z,95.81
2023-01-24T18:59:25.140Z,95.87
2023-01-24T19:01:59.282Z,96.02
2023-01-24T19:04:37.670Z,95.92
2023-01-24T19:07:11.954Z,96.05
2023-01-24T19:09:44.986Z,95.72
2023-01-24T19:12:19.338Z,95.70
2023-01-24T19:14:53.754Z,95.90
2023-01-24T19:17:27.953Z,95.51
2023-01-24T19:20:01.076Z,95.67
2023-01-24T19:22:33.429Z,95.50
2023-01-24T19:25:06.286Z,95.68
2023-01-24T19:27:40.003Z,95.61
2023-01-24T19:30:16.152Z,95.62
2023-01-24T19:32:50.696Z,95.46
2023-01-24T19:35:22.637Z,95.61
2023-01-24T19:37:55.283Z,95.58
2023-01-24T19:40:27.545Z,95.71
2023-01-24T19:43:11.857Z,95.80
2023-01-24T19:45:45.662Z,95.67
2023-01-24T19:48:20.276Z,95.69
2023-01-24T19:50:54.410Z,95.77
2023-01-24T19:53:27.645Z,95.86
2023-01-24T19:56:06.923Z,95.73
2023-01-24T19:58:44.826Z,95.53
2023-01-24T20:01:24.264Z,95.55
2023-01-24T20:04:21.081Z,95.68
2023-01-24T20:06:56.609Z,95.91
2023-01-24T20:09:32.247Z,95.95
2023-01-24T20:12:06.532Z,96.03
2023-01-24T20:14:39.177Z,96.20
2023-01-24T20:17:11.171Z,96.21
2023-01-24T20:19:52.092Z,96.11
2023-01-24T20:22:31.387Z,96.24
2023-01-24T20:25:13.646Z,96.48
2023-01-24T20:27:52.892Z,96.42
2023-01-24T20:30:23.539Z,96.13
2023-01-24T20:32:55.426Z,96.13
2023-01-24T20:35:27.377Z,95.86
2023-01-24T20:37:59.975Z,95.96
2023-01-24T20:40:32.368Z,95.95
2023-01-24T20:43:05.741Z,96.00
2023-01-24T20:45:40.225Z,96.00
2023-01-24T20:48:13.738Z,96.05
2023-01-24T20:50:45.876Z,96.02
2023-01-24T20:53:17.782Z,95.80
2023-01-24T20:55:56.526Z,95.69
2023-01-24T20:58:29.315Z,95.42
2023-01-24T21:01:10.860Z,95.41
2023-01-24T21:03:44.269Z,95.61
2023-01-24T21:06:19.472Z,95.54
2023-01-24T21:08:53.427Z,95.56
2023-01-24T21:11:29.791Z,95.60
2023-01-24T21:14:05.013Z,95.61
2023-01-24T21:16:40.388Z,95.58
2023-01-24T21:19:19.050Z,95.46
2023-01-24T21:21:55.214Z,95.46
2023-01-24T21:24:33.242Z,95.54
2023-01-24T21:27:07.405Z,95.67
2023-01-24T21:29:40.418Z,95.55
2023-01-24T21:32:13.579Z,95.52
2023-01-24T21:34:51.849Z,95.48
2023-01-24T21:37:34.802Z,95.55
2023-01-24T21:40:12.503Z,95.23
2023-01-24T21:42:46.094Z,95.20
2023-01-24T21:45:17.024Z,95.13
2023-01-24T21:47:51.965Z,95.05
2023-01-24T21:50:24.053Z,95.16
2023-01-24T21:52:58.982Z,95.23
2023-01-24T21:55:32.182Z,95.07
2023-01-24T21:58:06.166Z,95.39
2023-01-24T22:00:38.156Z,95.44
2023-01-24T22:03:29.207Z,95.42
2023-01-24T22:06:06.983Z,95.26
2023-01-24T22:08:39.560Z,95.27
2023-01-24T22:11:11.479Z,95.13
2023-01-24T22:13:46.399Z,95.33
2023-01-24T22:16:19.785Z,95.25
2023-01-24T22:18:53.217Z,94.99
2023-01-24T22:21:29.594Z,94.97
2023-01-24T22:24:08.923Z,95.03
2023-01-24T22:26:46.695Z,95.06
2023-01-24T22:29:19.735Z,95.06
2023-01-24T22:31:53.749Z,95.16
2023-01-24T22:34:28.692Z,95.08
2023-01-24T22:37:04.322Z,95.24
2023-01-24T22:39:37.888Z,95.25
2023-01-24T22:42:10.762Z,95.30
2023-01-24T22:44:43.307Z,95.19
2023-01-24T22:47:17.638Z,94.84
2023-01-24T22:49:49.962Z,94.76
2023-01-24T22:52:22.081Z,94.71
2023-01-24T22:54:54.443Z,94.66
2023-01-24T22:57:26.637Z,94.46
2023-01-24T22:59:59.294Z,94.70
2023-01-24T23:02:31.158Z,94.70
2023-01-24T23:05:03.669Z,94.70
2023-01-24T23:07:38.566Z,94.65
2023-01-24T23:10:12.197Z,94.56
2023-01-24T23:13:05.953Z,94.62
2023-01-24T23:16:00.977Z,94.37
2023-01-24T23:18:55.675Z,94.22
2023-01-24T23:21:31.614Z,94.36
2023-01-24T23:24:05.554Z,94.12
2023-01-24T23:26:38.087Z,94.24
2023-01-24T23:29:35.798Z,94.17
2023-01-24T23:32:18.594Z,94.30
2023-01-24T23:34:55.202Z,94.42
2023-01-24T23:37:29.267Z,94.25
2023-01-24T23:39:59.575Z,94.11
2023-01-24T23:42:32.056Z,94.03
2023-01-24T23:45:03.952Z,93.86
2023-01-24T23:47:35.896Z,93.78
2023-01-24T23:50:09.613Z,93.72
2023-01-24T23:52:41.572Z,93.63
2023-01-24T23:55:13.876Z,93.70
2023-01-24T23:57:45.893Z,93.37
